createdAt,value
2019-05-21T00:03:00.665Z,43.70
2019-05-21T00:18:00.838Z,51.40
2019-05-21T00:33:01.016Z,47.80
2019-05-21T00:48:01.197Z,51.30
2019-05-21T01:03:01.340Z,48.60
2019-05-21T01:18:01.501Z,48.30
2019-05-21T01:33:02.979Z,46.40
2019-05-21T01:48:03.153Z,45.80
2019-05-21T02:03:03.401Z,37.10
2019-05-21T02:18:03.589Z,35.60
2019-05-21T02:33:03.780Z,36.70
2019-05-21T02:48:04.010Z,38.20
2019-05-21T03:03:04.346Z,43.60
2019-05-21T03:18:04.527Z,44.30
2019-05-21T03:33:04.728Z,44.80
2019-05-21T03:48:04.955Z,40.30
2019-05-21T04:03:05.143Z,36.20
2019-05-21T04:18:05.343Z,35.80
2019-05-21T04:33:05.594Z,29.70
2019-05-21T04:48:05.676Z,29.10
2019-05-21T05:03:06.308Z,25.10
2019-05-21T05:18:06.410Z,26.30
2019-05-21T05:33:06.502Z,22.70
2019-05-21T05:48:06.801Z,23.60
2019-05-21T06:03:06.924Z,19.30
2019-05-21T06:18:07.117Z,17.20
2019-05-21T06:33:07.322Z,16.60
2019-05-21T06:48:07.474Z,14.60
2019-05-21T07:03:07.548Z,12.10
2019-05-21T07:18:07.673Z,11.50
2019-05-21T07:33:08.384Z,9.90
2019-05-21T07:48:08.399Z,12.20
2019-05-21T08:03:08.498Z,9.10
2019-05-21T08:18:08.598Z,9.10
2019-05-21T08:33:08.778Z,7.60
2019-05-21T08:48:08.939Z,8.90
2019-05-21T09:03:09.083Z,7.60
2019-05-21T09:18:09.246Z,5.40
2019-05-21T09:33:09.397Z,4.90
2019-05-21T09:48:09.578Z,4.00
2019-05-21T10:03:09.705Z,4.30
2019-05-21T10:18:09.879Z,3.90
2019-05-21T10:33:09.997Z,3.10
2019-05-21T10:48:10.119Z,3.20
2019-05-21T11:03:10.321Z,3.10
2019-05-21T11:18:12.168Z,3.40
2019-05-21T11:33:12.680Z,3.10
2019-05-21T11:48:12.778Z,2.60
2019-05-21T12:03:12.978Z,2.20
2019-05-21T12:18:13.196Z,2.80
2019-05-21T12:33:13.421Z,3.10
2019-05-21T12:48:13.620Z,3.50
2019-05-21T13:03:13.813Z,2.40
2019-05-21T13:18:14.027Z,3.50
2019-05-21T13:33:14.192Z,4.20
2019-05-21T13:48:14.319Z,4.30
2019-05-21T14:03:14.620Z,4.10
2019-05-21T14:18:14.759Z,4.00
2019-05-21T14:33:14.958Z,3.50
2019-05-21T14:48:15.173Z,3.70
2019-05-21T15:03:24.760Z,4.60
2019-05-21T15:18:22.222Z,5.90
2019-05-21T15:33:22.651Z,5.30
2019-05-21T15:48:26.313Z,4.20
2019-05-21T16:03:26.976Z,4.00
2019-05-21T16:18:27.185Z,5.10
2019-05-21T16:33:27.298Z,6.20
2019-05-21T16:48:27.390Z,5.10
2019-05-21T17:03:27.594Z,5.50
2019-05-21T17:18:27.711Z,4.00
2019-05-21T17:33:27.811Z,3.40
2019-05-21T17:48:28.011Z,4.00
2019-05-21T18:03:28.125Z,4.20
2019-05-21T18:18:28.308Z,5.10
2019-05-21T18:33:28.509Z,5.90
2019-05-21T18:48:28.669Z,7.80
2019-05-21T19:03:28.744Z,7.70
2019-05-21T19:18:28.930Z,5.30
2019-05-21T19:33:29.133Z,4.30
2019-05-21T19:48:29.282Z,7.10
2019-05-21T20:03:29.406Z,14.00
2019-05-21T20:18:29.502Z,5.10
2019-05-21T20:33:29.604Z,4.60
2019-05-21T20:48:29.815Z,8.10
2019-05-21T21:03:30.411Z,14.10
2019-05-21T21:18:31.115Z,10.40
2019-05-21T21:33:32.482Z,19.70
2019-05-21T21:48:32.647Z,24.90
2019-05-21T22:03:32.745Z,26.40
2019-05-21T22:18:32.935Z,29.10
2019-05-21T22:33:33.053Z,27.80
2019-05-21T22:48:33.219Z,30.80
2019-05-21T23:03:33.350Z,29.50
2019-05-21T23:18:33.576Z,40.80
2019-05-21T23:33:33.661Z,47.50
2019-05-21T23:48:33.869Z,45.20
